createdAt,value
2023-03-25T00:02:39.100Z,16.30
2023-03-25T00:05:26.639Z,16.60
2023-03-25T00:08:13.698Z,16.60
2023-03-25T00:11:04.221Z,16.40
2023-03-25T00:13:50.683Z,16.50
2023-03-25T00:16:37.088Z,16.60
2023-03-25T00:19:23.134Z,16.60
2023-03-25T00:22:09.286Z,16.20
2023-03-25T00:24:55.155Z,16.50
2023-03-25T00:27:41.126Z,16.80
2023-03-25T00:30:27.217Z,17.10
2023-03-25T00:33:13.524Z,17.20
2023-03-25T00:35:59.657Z,17.30
2023-03-25T00:38:49.045Z,17.30
2023-03-25T00:41:37.149Z,17.30
2023-03-25T00:44:23.515Z,17.40
2023-03-25T00:47:11.707Z,17.30
2023-03-25T00:49:57.763Z,16.90
2023-03-25T00:52:43.947Z,16.70
2023-03-25T00:55:30.055Z,16.60
2023-03-25T00:58:15.985Z,16.50
2023-03-25T01:01:07.772Z,16.30
2023-03-25T01:03:58.113Z,16.30
2023-03-25T01:06:52.147Z,16.20
2023-03-25T01:09:40.014Z,16.30
2023-03-25T01:12:26.732Z,16.40
2023-03-25T01:15:14.967Z,16.30
2023-03-25T01:18:01.249Z,16.30
2023-03-25T01:20:46.730Z,16.40
2023-03-25T01:23:33.467Z,16.20
2023-03-25T01:26:21.705Z,16.20
2023-03-25T01:29:07.786Z,16.40
2023-03-25T01:31:53.943Z,16.40
2023-03-25T01:34:40.161Z,16.30
2023-03-25T01:37:27.396Z,16.40
2023-03-25T01:40:23.614Z,16.20
2023-03-25T01:43:13.560Z,16.20
2023-03-25T01:46:00.452Z,16.10
2023-03-25T01:48:50.379Z,16.20
2023-03-25T01:51:40.695Z,16.20
2023-03-25T01:54:28.025Z,16.30
2023-03-25T01:57:18.502Z,16.40
2023-03-25T02:00:09.461Z,16.40
2023-03-25T02:02:59.637Z,16.50
2023-03-25T02:06:15.666Z,16.30
2023-03-25T02:09:09.241Z,16.30
2023-03-25T02:11:55.506Z,16.20
2023-03-25T02:14:41.430Z,16.50
2023-03-25T02:17:36.622Z,16.70
2023-03-25T02:21:03.162Z,16.50
2023-03-25T02:23:58.366Z,15.60
2023-03-25T02:27:27.793Z,15.70
2023-03-25T02:30:46.023Z,16.00
2023-03-25T02:33:59.538Z,16.20
2023-03-25T02:37:05.741Z,16.40
2023-03-25T02:40:02.180Z,16.50
2023-03-25T02:43:05.943Z,16.40
2023-03-25T02:45:58.036Z,16.30
2023-03-25T02:48:54.052Z,16.40
2023-03-25T02:51:59.758Z,16.20
2023-03-25T02:54:47.656Z,16.20
2023-03-25T02:57:38.469Z,16.20
2023-03-25T03:00:28.762Z,16.20
2023-03-25T03:03:14.720Z,16.20
2023-03-25T03:06:02.827Z,16.10
2023-03-25T03:09:04.201Z,16.10
2023-03-25T03:12:09.694Z,16.10
2023-03-25T03:15:06.946Z,16.10
2023-03-25T03:17:56.297Z,15.90
2023-03-25T03:21:07.112Z,15.70
2023-03-25T03:23:59.797Z,15.40
2023-03-25T03:26:49.744Z,15.30
2023-03-25T03:29:49.337Z,15.20
2023-03-25T03:32:47.002Z,15.30
2023-03-25T03:35:42.256Z,14.90
2023-03-25T03:38:32.851Z,14.70
2023-03-25T03:41:21.674Z,14.30
2023-03-25T03:44:12.481Z,14.10
2023-03-25T03:47:15.890Z,14.40
2023-03-25T03:50:09.251Z,14.30
2023-03-25T03:53:06.728Z,14.20
2023-03-25T03:56:22.090Z,14.20
2023-03-25T03:59:35.309Z,14.60
2023-03-25T04:02:39.354Z,14.70
2023-03-25T04:05:30.892Z,14.40
2023-03-25T04:08:30.997Z,14.40
2023-03-25T04:11:23.264Z,14.60
2023-03-25T04:14:10.500Z,14.60
2023-03-25T04:16:56.998Z,14.80
2023-03-25T04:19:48.907Z,14.80
2023-03-25T04:22:37.746Z,14.80
2023-03-25T04:25:25.315Z,14.90
2023-03-25T04:28:13.843Z,14.90
2023-03-25T04:31:07.585Z,14.90
2023-03-25T04:33:53.504Z,14.80
2023-03-25T04:36:42.967Z,14.70
2023-03-25T04:39:32.266Z,14.60
2023-03-25T04:42:17.968Z,14.60
2023-03-25T04:45:07.645Z,14.50
2023-03-25T04:47:54.372Z,14.40
2023-03-25T04:50:39.608Z,14.40
2023-03-25T04:53:28.840Z,14.30
2023-03-25T04:56:17.630Z,14.20
2023-03-25T04:59:04.388Z,14.00
2023-03-25T05:01:50.552Z,13.90
2023-03-25T05:04:36.104Z,13.80
2023-03-25T05:07:21.981Z,13.80
2023-03-25T05:10:09.362Z,13.70
2023-03-25T05:13:04.251Z,13.60
2023-03-25T05:15:51.168Z,13.40
2023-03-25T05:18:37.225Z,13.20
2023-03-25T05:21:23.480Z,13.10
2023-03-25T05:24:12.516Z,12.90
2023-03-25T05:27:02.686Z,12.80
2023-03-25T05:29:48.864Z,12.80
2023-03-25T05:32:34.988Z,12.80
2023-03-25T05:35:21.257Z,13.00
2023-03-25T05:38:08.365Z,13.20
2023-03-25T05:40:55.146Z,13.30
2023-03-25T05:43:41.556Z,13.30
2023-03-25T05:46:31.874Z,13.40
2023-03-25T05:49:17.828Z,13.40
2023-03-25T05:52:04.216Z,13.40
2023-03-25T05:54:51.915Z,13.40
2023-03-25T05:57:37.700Z,13.40
2023-03-25T06:00:24.613Z,13.40
2023-03-25T06:03:11.496Z,13.50
2023-03-25T06:05:57.943Z,13.60
2023-03-25T06:08:44.815Z,13.70
2023-03-25T06:11:30.898Z,13.80
2023-03-25T06:14:16.931Z,13.90
2023-03-25T06:17:02.849Z,14.10
2023-03-25T06:19:49.976Z,14.30
2023-03-25T06:22:38.632Z,14.30
2023-03-25T06:25:26.953Z,14.50
2023-03-25T06:28:12.978Z,14.60
2023-03-25T06:30:59.278Z,14.80
2023-03-25T06:33:46.572Z,15.00
2023-03-25T06:36:32.460Z,14.20
2023-03-25T06:39:22.013Z,15.10
2023-03-25T06:42:08.509Z,15.10
2023-03-25T06:45:13.014Z,15.10
2023-03-25T06:48:16.944Z,15.10
2023-03-25T06:51:03.209Z,15.10
2023-03-25T06:53:49.324Z,15.20
2023-03-25T06:56:35.777Z,15.30
2023-03-25T06:59:22.792Z,15.40
2023-03-25T07:02:14.198Z,15.50
2023-03-25T07:05:01.059Z,15.70
2023-03-25T07:07:47.536Z,15.90
2023-03-25T07:10:33.914Z,16.10
2023-03-25T07:13:20.070Z,16.30
2023-03-25T07:16:06.696Z,16.50
2023-03-25T07:18:54.925Z,16.40
2023-03-25T07:21:41.073Z,16.60
2023-03-25T07:24:27.162Z,16.70
2023-03-25T07:27:14.193Z,16.80
2023-03-25T07:30:05.914Z,16.60
2023-03-25T07:32:52.078Z,16.40
2023-03-25T07:35:38.785Z,16.40
2023-03-25T07:38:25.438Z,16.60
2023-03-25T07:41:13.165Z,17.00
2023-03-25T07:44:09.525Z,17.30
2023-03-25T07:46:56.853Z,17.10
2023-03-25T07:49:44.420Z,17.10
2023-03-25T07:52:31.848Z,17.30
2023-03-25T07:55:18.334Z,17.70
2023-03-25T07:58:04.568Z,18.40
2023-03-25T08:00:51.013Z,19.50
2023-03-25T08:03:40.185Z,19.60
2023-03-25T08:06:27.398Z,21.00
2023-03-25T08:09:13.230Z,21.90
2023-03-25T08:11:59.459Z,23.30
2023-03-25T08:14:45.253Z,23.00
2023-03-25T08:17:31.399Z,24.30
2023-03-25T08:20:17.778Z,24.40
2023-03-25T08:23:04.080Z,24.70
2023-03-25T08:25:51.687Z,25.00
2023-03-25T08:28:38.228Z,24.80
2023-03-25T08:31:25.061Z,24.10
2023-03-25T08:34:11.390Z,25.00
2023-03-25T08:36:58.213Z,25.80
2023-03-25T08:39:46.063Z,25.50
2023-03-25T08:42:32.038Z,25.00
2023-03-25T08:45:18.207Z,24.80
2023-03-25T08:48:05.695Z,25.80
2023-03-25T08:50:52.247Z,25.50
2023-03-25T08:53:38.180Z,25.40
2023-03-25T08:56:24.268Z,25.60
2023-03-25T08:59:10.259Z,25.60
2023-03-25T09:01:57.806Z,25.10
2023-03-25T09:04:48.769Z,25.00
2023-03-25T09:07:36.948Z,25.50
2023-03-25T09:10:23.691Z,25.40
2023-03-25T09:13:09.988Z,25.30
2023-03-25T09:15:59.133Z,26.50
2023-03-25T09:18:45.453Z,26.70
2023-03-25T09:21:31.446Z,26.80
2023-03-25T09:24:17.694Z,26.30
2023-03-25T09:27:04.833Z,26.00
2023-03-25T09:29:51.420Z,25.70
2023-03-25T09:32:37.645Z,26.30
2023-03-25T09:35:24.273Z,26.50
2023-03-25T09:38:11.776Z,26.30
2023-03-25T09:41:05.448Z,26.60
2023-03-25T09:44:17.074Z,26.90
2023-03-25T09:47:06.029Z,26.40
2023-03-25T09:50:00.146Z,26.10
2023-03-25T09:53:15.331Z,26.50
2023-03-25T09:56:03.790Z,26.00
2023-03-25T09:58:53.396Z,26.00
2023-03-25T10:01:52.925Z,26.00
2023-03-25T10:05:13.972Z,25.80
2023-03-25T10:08:15.112Z,26.20
2023-03-25T10:11:04.459Z,26.10
2023-03-25T10:14:12.347Z,25.90
2023-03-25T10:21:16.931Z,27.00
2023-03-25T10:24:23.973Z,27.80
2023-03-25T10:27:27.189Z,28.80
2023-03-25T10:30:21.741Z,28.70
2023-03-25T10:33:24.996Z,28.70
2023-03-25T10:36:36.697Z,28.60
2023-03-25T10:39:24.796Z,28.80
2023-03-25T10:42:38.749Z,28.50
2023-03-25T10:45:29.034Z,28.80
2023-03-25T10:48:28.171Z,29.00
2023-03-25T10:51:19.943Z,29.80
2023-03-25T10:54:06.277Z,29.10
2023-03-25T10:56:55.284Z,29.00
2023-03-25T10:59:48.020Z,28.30
2023-03-25T11:02:34.689Z,28.20
2023-03-25T11:05:27.399Z,28.20
2023-03-25T11:08:24.049Z,27.40
2023-03-25T11:11:12.641Z,27.70
2023-03-25T11:13:58.503Z,27.70
2023-03-25T11:16:49.562Z,27.60
2023-03-25T11:19:55.746Z,28.60
2023-03-25T11:22:48.489Z,30.10
2023-03-25T11:25:42.183Z,29.60
2023-03-25T11:28:54.402Z,29.80
2023-03-25T11:31:42.804Z,31.00
2023-03-25T11:34:31.615Z,29.20
2023-03-25T11:37:22.810Z,28.40
2023-03-25T11:40:17.070Z,27.00
2023-03-25T11:43:04.648Z,27.00
2023-03-25T11:45:53.325Z,27.60
2023-03-25T11:48:43.231Z,27.30
2023-03-25T11:51:32.877Z,26.90
2023-03-25T11:54:19.368Z,27.60
2023-03-25T11:57:14.357Z,27.00
2023-03-25T12:00:20.787Z,27.20
2023-03-25T12:03:23.264Z,25.80
2023-03-25T12:06:12.403Z,24.50
2023-03-25T12:09:00.924Z,24.30
2023-03-25T12:12:06.411Z,24.10
2023-03-25T12:15:07.399Z,23.90
2023-03-25T12:17:59.859Z,23.60
2023-03-25T12:20:55.253Z,23.40
2023-03-25T12:23:58.771Z,23.30
2023-03-25T12:27:00.093Z,23.40
2023-03-25T12:29:48.976Z,23.20
2023-03-25T12:33:03.015Z,23.20
2023-03-25T12:39:07.318Z,22.90
2023-03-25T12:42:27.975Z,22.90
2023-03-25T12:45:40.936Z,22.90
2023-03-25T12:48:45.858Z,22.80
2023-03-25T12:52:09.277Z,22.60
2023-03-25T12:55:09.333Z,22.80
2023-03-25T12:58:09.479Z,21.30
2023-03-25T13:01:13.905Z,23.10
2023-03-25T13:04:40.793Z,23.10
2023-03-25T13:07:41.205Z,23.10
2023-03-25T13:10:36.927Z,23.00
2023-03-25T13:13:26.044Z,22.90
2023-03-25T13:16:19.192Z,23.00
2023-03-25T13:19:26.647Z,23.20
2023-03-25T13:22:24.790Z,23.10
2023-03-25T13:25:55.621Z,23.00
2023-03-25T13:29:15.344Z,23.00
2023-03-25T13:32:07.078Z,23.00
2023-03-25T13:35:14.001Z,23.10
2023-03-25T13:38:05.380Z,23.00
2023-03-25T13:41:14.900Z,23.10
2023-03-25T13:44:08.458Z,23.20
2023-03-25T13:47:17.035Z,23.00
2023-03-25T13:50:27.237Z,22.90
2023-03-25T13:53:28.341Z,23.00
2023-03-25T13:56:57.333Z,23.10
2023-03-25T13:59:56.098Z,23.10
2023-03-25T14:03:09.465Z,23.90
2023-03-25T14:06:26.682Z,23.30
2023-03-25T14:09:34.853Z,23.30
2023-03-25T14:12:33.770Z,23.30
2023-03-25T14:15:24.016Z,23.20
2023-03-25T14:18:22.855Z,23.30
2023-03-25T14:21:35.921Z,23.20
2023-03-25T14:24:39.412Z,23.40
2023-03-25T14:27:48.564Z,23.20
2023-03-25T14:30:51.170Z,23.40
2023-03-25T14:34:09.485Z,23.40
2023-03-25T14:37:07.278Z,24.80
2023-03-25T14:40:27.374Z,23.40
2023-03-25T14:43:28.411Z,23.50
2023-03-25T14:56:42.017Z,24.00
2023-03-25T14:59:55.288Z,23.70
2023-03-25T15:02:57.244Z,23.70
2023-03-25T15:05:44.586Z,23.40
2023-03-25T15:08:55.650Z,23.40
2023-03-25T15:15:50.667Z,23.60
2023-03-25T15:21:59.770Z,23.60
2023-03-25T15:25:07.733Z,23.50
2023-03-25T15:34:59.730Z,21.80
2023-03-25T15:38:13.708Z,23.50
2023-03-25T15:41:43.074Z,23.40
2023-03-25T15:44:51.649Z,23.30
2023-03-25T15:48:36.526Z,23.20
2023-03-25T15:51:52.822Z,23.20
2023-03-25T15:54:47.556Z,23.20
2023-03-25T15:57:59.266Z,23.20
2023-03-25T16:00:51.099Z,23.20
2023-03-25T16:03:45.996Z,23.10
2023-03-25T16:06:43.247Z,23.10
2023-03-25T16:15:40.901Z,21.60
2023-03-25T16:18:30.303Z,22.90
2023-03-25T16:21:17.072Z,22.90
2023-03-25T16:24:09.212Z,22.70
2023-03-25T16:26:59.020Z,22.70
2023-03-25T16:29:54.289Z,22.70
2023-03-25T16:32:47.403Z,22.60
2023-03-25T16:35:41.030Z,23.70
2023-03-25T16:38:28.741Z,22.40
2023-03-25T16:41:18.698Z,22.30
2023-03-25T16:44:08.807Z,21.90
2023-03-25T16:46:55.974Z,22.20
2023-03-25T16:49:46.733Z,21.10
2023-03-25T16:52:35.654Z,22.20
2023-03-25T16:55:37.701Z,22.20
2023-03-25T16:58:26.994Z,22.30
2023-03-25T17:01:18.589Z,22.00
2023-03-25T17:04:14.635Z,22.00
2023-03-25T17:07:09.940Z,22.10
2023-03-25T17:10:00.270Z,22.20
2023-03-25T17:12:59.026Z,22.00
2023-03-25T17:15:49.439Z,21.10
2023-03-25T17:22:19.044Z,21.80
2023-03-25T17:25:28.550Z,22.00
2023-03-25T17:28:43.741Z,21.70
2023-03-25T17:35:18.692Z,21.80
2023-03-25T17:38:06.674Z,21.70
2023-03-25T17:41:18.689Z,21.60
2023-03-25T17:44:06.646Z,21.50
2023-03-25T17:46:57.830Z,21.50
2023-03-25T17:49:46.362Z,21.30
2023-03-25T17:52:36.308Z,21.20
2023-03-25T17:55:23.303Z,22.70
2023-03-25T17:58:10.612Z,21.20
2023-03-25T18:01:02.722Z,21.30
2023-03-25T18:03:49.694Z,21.20
2023-03-25T18:06:40.248Z,21.00
2023-03-25T18:09:27.449Z,20.90
2023-03-25T18:12:19.638Z,20.80
2023-03-25T18:15:08.306Z,20.60
2023-03-25T18:17:59.108Z,20.40
2023-03-25T18:20:52.116Z,20.40
2023-03-25T18:23:39.162Z,20.50
2023-03-25T18:26:27.653Z,20.30
2023-03-25T18:29:20.758Z,20.60
2023-03-25T18:32:08.433Z,20.20
2023-03-25T18:34:56.742Z,20.20
2023-03-25T18:37:48.266Z,20.10
2023-03-25T18:40:49.260Z,20.00
2023-03-25T18:46:47.291Z,20.00
2023-03-25T18:49:34.020Z,19.80
2023-03-25T18:52:21.275Z,19.80
2023-03-25T18:55:09.178Z,18.20
2023-03-25T19:00:56.578Z,19.70
2023-03-25T19:03:45.335Z,19.70
2023-03-25T19:06:32.175Z,19.60
2023-03-25T19:09:23.021Z,19.70
2023-03-25T19:12:11.455Z,19.60
2023-03-25T19:14:57.380Z,19.50
2023-03-25T19:17:45.882Z,19.50
2023-03-25T19:20:35.250Z,19.40
2023-03-25T19:23:24.204Z,19.20
2023-03-25T19:26:12.301Z,19.20
2023-03-25T19:29:00.018Z,19.30
2023-03-25T19:31:52.434Z,19.30
2023-03-25T19:34:40.402Z,19.00
2023-03-25T19:37:35.663Z,19.00
2023-03-25T19:40:37.074Z,19.10
2023-03-25T19:43:23.228Z,18.80
2023-03-25T19:46:09.439Z,19.00
2023-03-25T19:48:55.323Z,18.70
2023-03-25T19:51:43.374Z,18.80
2023-03-25T19:54:29.475Z,19.00
2023-03-25T19:57:15.974Z,19.00
2023-03-25T20:00:14.831Z,19.00
2023-03-25T20:03:02.305Z,19.00
2023-03-25T20:05:49.581Z,19.00
2023-03-25T20:08:35.983Z,19.00
2023-03-25T20:11:22.046Z,19.00
2023-03-25T20:14:09.120Z,18.90
2023-03-25T20:16:55.837Z,18.90
2023-03-25T20:19:42.056Z,18.80
2023-03-25T20:22:28.372Z,18.90
2023-03-25T20:25:17.434Z,18.80
2023-03-25T20:28:03.453Z,18.80
2023-03-25T20:33:51.260Z,18.90
2023-03-25T20:36:42.893Z,18.80
2023-03-25T20:39:30.043Z,18.60
2023-03-25T20:42:18.100Z,18.80
2023-03-25T20:45:07.673Z,18.50
2023-03-25T20:47:54.710Z,18.50
2023-03-25T20:50:41.608Z,18.50
2023-03-25T20:53:30.775Z,18.00
2023-03-25T20:56:17.051Z,18.40
2023-03-25T20:59:04.134Z,18.50
2023-03-25T21:01:52.261Z,18.50
2023-03-25T21:04:44.116Z,18.50
2023-03-25T21:07:33.120Z,18.50
2023-03-25T21:10:20.383Z,18.40
2023-03-25T21:13:07.387Z,18.60
2023-03-25T21:16:06.644Z,18.50
2023-03-25T21:18:55.769Z,18.60
2023-03-25T21:21:43.016Z,18.00
2023-03-25T21:24:34.084Z,17.80
2023-03-25T21:27:38.737Z,17.30
2023-03-25T21:30:27.091Z,16.70
2023-03-25T21:33:15.805Z,16.80
2023-03-25T21:36:03.875Z,16.30
2023-03-25T21:38:52.430Z,16.50
2023-03-25T21:44:45.124Z,15.90
2023-03-25T21:47:42.796Z,16.60
2023-03-25T21:50:35.779Z,16.50
2023-03-25T21:53:25.945Z,16.40
2023-03-25T21:56:18.747Z,14.60
2023-03-25T21:59:06.038Z,16.30
2023-03-25T22:02:00.782Z,16.20
2023-03-25T22:04:52.312Z,15.90
2023-03-25T22:07:40.034Z,15.50
2023-03-25T22:10:31.018Z,15.40
2023-03-25T22:13:17.959Z,15.80
2023-03-25T22:16:05.948Z,15.60
2023-03-25T22:18:54.423Z,15.40
2023-03-25T22:21:41.137Z,14.90
2023-03-25T22:24:30.159Z,15.40
2023-03-25T22:27:17.175Z,15.80
2023-03-25T22:30:06.092Z,16.30
2023-03-25T22:36:04.118Z,16.80
2023-03-25T22:38:52.496Z,16.90
2023-03-25T22:41:39.160Z,17.00
2023-03-25T22:44:26.447Z,17.10
2023-03-25T22:47:14.372Z,17.10
2023-03-25T22:50:02.219Z,16.70
2023-03-25T22:52:48.538Z,15.90
2023-03-25T22:55:35.233Z,15.80
2023-03-25T22:59:06.254Z,15.80
2023-03-25T23:01:52.600Z,16.00
2023-03-25T23:04:41.354Z,16.00
2023-03-25T23:07:31.164Z,16.20
2023-03-25T23:10:21.934Z,16.50
2023-03-25T23:13:08.102Z,16.50
2023-03-25T23:15:59.697Z,16.10
2023-03-25T23:18:55.070Z,16.20
2023-03-25T23:21:41.577Z,15.70
2023-03-25T23:24:33.976Z,14.40
2023-03-25T23:27:24.364Z,15.70
2023-03-25T23:33:31.873Z,15.80
2023-03-25T23:36:23.159Z,16.00
2023-03-25T23:42:13.726Z,15.00
2023-03-25T23:45:01.981Z,15.40
2023-03-25T23:47:49.581Z,15.50
2023-03-25T23:53:43.932Z,14.90
2023-03-25T23:56:33.737Z,15.30
2023-03-25T23:59:20.212Z,15.50
